sensor_id;sensor_type;location;lat;lon;timestamp;pressure;altitude;pressure_sealevel;temperature;humidity
16777;BME280;8505;49.456;8.164;2023-05-14T00:01:09;99853.47;;;10.80;100.00
16777;BME280;8505;49.456;8.164;2023-05-14T00:03:37;99856.94;;;10.81;100.00
16777;BME280;8505;49.456;8.164;2023-05-14T00:06:06;99854.81;;;10.76;100.00
16777;BME280;8505;49.456;8.164;2023-05-14T00:08:35;99852.84;;;10.78;100.00
16777;BME280;8505;49.456;8.164;2023-05-14T00:11:04;99850.19;;;10.78;100.00
16777;BME280;8505;49.456;8.164;2023-05-14T00:13:34;99855.31;;;10.80;100.00
16777;BME280;8505;49.456;8.164;2023-05-14T00:16:02;99859.94;;;10.78;100.00
16777;BME280;8505;49.456;8.164;2023-05-14T00:18:30;99860.63;;;10.80;100.00
16777;BME280;8505;49.456;8.164;2023-05-14T00:20:58;99858.59;;;10.82;100.00
16777;BME280;8505;49.456;8.164;2023-05-14T00:23:26;99859.28;;;10.76;100.00
16777;BME280;8505;49.456;8.164;2023-05-14T00:25:54;99844.53;;;10.81;100.00
16777;BME280;8505;49.456;8.164;2023-05-14T00:28:23;99854.13;;;10.82;100.00
16777;BME280;8505;49.456;8.164;2023-05-14T00:30:51;99844.06;;;10.70;100.00
16777;BME280;8505;49.456;8.164;2023-05-14T00:33:19;99843.75;;;10.65;100.00
16777;BME280;8505;49.456;8.164;2023-05-14T00:35:47;99841.94;;;10.73;100.00
16777;BME280;8505;49.456;8.164;2023-05-14T00:38:15;99839.44;;;10.72;100.00
16777;BME280;8505;49.456;8.164;2023-05-14T00:40:45;99837.94;;;10.69;100.00
16777;BME280;8505;49.456;8.164;2023-05-14T00:43:18;99834.31;;;10.70;100.00
16777;BME280;8505;49.456;8.164;2023-05-14T00:45:49;99835.59;;;10.74;99.85
16777;BME280;8505;49.456;8.164;2023-05-14T00:48:18;99829.81;;;10.79;99.68
16777;BME280;8505;49.456;8.164;2023-05-14T00:50:47;99831.63;;;10.78;99.71
16777;BME280;8505;49.456;8.164;2023-05-14T00:53:16;99831.50;;;10.72;99.45
16777;BME280;8505;49.456;8.164;2023-05-14T00:55:45;99836.09;;;10.78;99.84
16777;BME280;8505;49.456;8.164;2023-05-14T00:58:16;99838.91;;;10.76;99.58
16777;BME280;8505;49.456;8.164;2023-05-14T01:00:44;99830.97;;;10.76;100.00
16777;BME280;8505;49.456;8.164;2023-05-14T01:03:14;99828.81;;;10.80;99.14
16777;BME280;8505;49.456;8.164;2023-05-14T01:05:55;99828.63;;;10.81;99.07
16777;BME280;8505;49.456;8.164;2023-05-14T01:08:32;99831.97;;;10.75;99.35
16777;BME280;8505;49.456;8.164;2023-05-14T01:11:05;99830.28;;;10.82;99.15
16777;BME280;8505;49.456;8.164;2023-05-14T01:13:41;99823.84;;;10.77;99.38
16777;BME280;8505;49.456;8.164;2023-05-14T01:16:12;99817.25;;;10.73;99.26
16777;BME280;8505;49.456;8.164;2023-05-14T01:18:42;99820.59;;;10.67;99.27
16777;BME280;8505;49.456;8.164;2023-05-14T01:21:42;99816.91;;;10.68;99.11
16777;BME280;8505;49.456;8.164;2023-05-14T01:24:10;99808.84;;;10.61;99.43
16777;BME280;8505;49.456;8.164;2023-05-14T01:26:38;99810.34;;;10.55;99.42
16777;BME280;8505;49.456;8.164;2023-05-14T01:29:11;99812.66;;;10.50;99.63
16777;BME280;8505;49.456;8.164;2023-05-14T01:31:42;99815.66;;;10.39;100.00
16777;BME280;8505;49.456;8.164;2023-05-14T01:34:11;99815.00;;;10.37;100.00
16777;BME280;8505;49.456;8.164;2023-05-14T01:36:42;99816.34;;;10.41;100.00
16777;BME280;8505;49.456;8.164;2023-05-14T01:39:10;99816.19;;;10.35;100.00
16777;BME280;8505;49.456;8.164;2023-05-14T01:41:41;99812.72;;;10.34;100.00
16777;BME280;8505;49.456;8.164;2023-05-14T01:44:10;99813.38;;;10.28;100.00
16777;BME280;8505;49.456;8.164;2023-05-14T01:46:38;99817.16;;;10.34;100.00
16777;BME280;8505;49.456;8.164;2023-05-14T01:49:06;99816.03;;;10.36;100.00
16777;BME280;8505;49.456;8.164;2023-05-14T01:51:34;99821.31;;;10.36;100.00
16777;BME280;8505;49.456;8.164;2023-05-14T01:54:03;99812.34;;;10.37;99.74
16777;BME280;8505;49.456;8.164;2023-05-14T01:56:31;99819.66;;;10.35;99.42
16777;BME280;8505;49.456;8.164;2023-05-14T01:58:59;99814.22;;;10.29;99.55
16777;BME280;8505;49.456;8.164;2023-05-14T02:01:27;99820.66;;;10.42;98.85
16777;BME280;8505;49.456;8.164;2023-05-14T02:03:55;99821.47;;;10.35;99.08
16777;BME280;8505;49.456;8.164;2023-05-14T02:06:23;99819.63;;;10.43;98.82
16777;BME280;8505;49.456;8.164;2023-05-14T02:08:51;99812.38;;;10.29;98.71
16777;BME280;8505;49.456;8.164;2023-05-14T02:11:20;99818.00;;;10.26;99.30
16777;BME280;8505;49.456;8.164;2023-05-14T02:13:48;99813.72;;;10.17;99.06
16777;BME280;8505;49.456;8.164;2023-05-14T02:16:16;99816.38;;;10.17;99.60
16777;BME280;8505;49.456;8.164;2023-05-14T02:18:44;99814.84;;;10.14;99.96
16777;BME280;8505;49.456;8.164;2023-05-14T02:21:12;99816.81;;;10.12;99.54
16777;BME280;8505;49.456;8.164;2023-05-14T02:23:40;99813.19;;;9.97;99.98
16777;BME280;8505;49.456;8.164;2023-05-14T02:26:08;99813.69;;;10.01;99.88
16777;BME280;8505;49.456;8.164;2023-05-14T02:28:37;99814.84;;;9.90;100.00
16777;BME280;8505;49.456;8.164;2023-05-14T02:31:05;99808.22;;;9.94;100.00
16777;BME280;8505;49.456;8.164;2023-05-14T02:33:33;99805.75;;;9.85;100.00
16777;BME280;8505;49.456;8.164;2023-05-14T02:36:01;99802.47;;;9.91;100.00
16777;BME280;8505;49.456;8.164;2023-05-14T02:38:29;99806.75;;;9.92;100.00
16777;BME280;8505;49.456;8.164;2023-05-14T02:40:57;99809.06;;;9.95;100.00
16777;BME280;8505;49.456;8.164;2023-05-14T02:43:24;99807.75;;;9.99;99.67
16777;BME280;8505;49.456;8.164;2023-05-14T02:45:54;99807.06;;;9.89;99.91
16777;BME280;8505;49.456;8.164;2023-05-14T02:48:21;99814.34;;;9.95;99.63
16777;BME280;8505;49.456;8.164;2023-05-14T02:50:49;99807.25;;;10.03;99.58
16777;BME280;8505;49.456;8.164;2023-05-14T02:53:17;99802.47;;;9.99;99.39
16777;BME280;8505;49.456;8.164;2023-05-14T02:55:45;99804.75;;;9.94;99.43
16777;BME280;8505;49.456;8.164;2023-05-14T02:58:13;99800.78;;;9.90;99.47
16777;BME280;8505;49.456;8.164;2023-05-14T03:00:41;99805.41;;;9.88;99.37
16777;BME280;8505;49.456;8.164;2023-05-14T03:03:11;99805.25;;;9.89;99.62
16777;BME280;8505;49.456;8.164;2023-05-14T03:05:39;99802.13;;;9.86;99.35
16777;BME280;8505;49.456;8.164;2023-05-14T03:08:07;99810.22;;;9.84;99.32
16777;BME280;8505;49.456;8.164;2023-05-14T03:10:35;99796.16;;;9.84;98.57
16777;BME280;8505;49.456;8.164;2023-05-14T03:13:02;99802.47;;;9.74;99.30
16777;BME280;8505;49.456;8.164;2023-05-14T03:15:30;99799.16;;;9.72;99.17
16777;BME280;8505;49.456;8.164;2023-05-14T03:17:58;99794.53;;;9.74;98.95
16777;BME280;8505;49.456;8.164;2023-05-14T03:20:27;99793.84;;;9.72;99.05
16777;BME280;8505;49.456;8.164;2023-05-14T03:22:55;99792.53;;;9.60;99.30
16777;BME280;8505;49.456;8.164;2023-05-14T03:25:23;99792.19;;;9.55;99.73
16777;BME280;8505;49.456;8.164;2023-05-14T03:27:51;99796.66;;;9.55;99.58
16777;BME280;8505;49.456;8.164;2023-05-14T03:30:18;99790.22;;;9.49;99.77
16777;BME280;8505;49.456;8.164;2023-05-14T03:32:47;99801.75;;;9.48;99.86
16777;BME280;8505;49.456;8.164;2023-05-14T03:35:15;99788.38;;;9.50;100.00
16777;BME280;8505;49.456;8.164;2023-05-14T03:37:44;99786.88;;;9.47;99.75
16777;BME280;8505;49.456;8.164;2023-05-14T03:40:12;99795.81;;;9.46;99.61
16777;BME280;8505;49.456;8.164;2023-05-14T03:42:39;99790.22;;;9.49;99.33
16777;BME280;8505;49.456;8.164;2023-05-14T03:45:08;99790.84;;;9.43;99.80
16777;BME280;8505;49.456;8.164;2023-05-14T03:47:36;99788.53;;;9.40;99.89
16777;BME280;8505;49.456;8.164;2023-05-14T03:50:05;99794.78;;;9.39;99.94
16777;BME280;8505;49.456;8.164;2023-05-14T03:52:33;99796.28;;;9.42;100.00
16777;BME280;8505;49.456;8.164;2023-05-14T03:55:03;99796.78;;;9.45;99.51
16777;BME280;8505;49.456;8.164;2023-05-14T03:57:31;99792.31;;;9.46;99.51
16777;BME280;8505;49.456;8.164;2023-05-14T03:59:59;99796.44;;;9.40;99.72
16777;BME280;8505;49.456;8.164;2023-05-14T04:02:27;99793.16;;;9.46;99.58
16777;BME280;8505;49.456;8.164;2023-05-14T04:04:55;99796.28;;;9.42;99.78
16777;BME280;8505;49.456;8.164;2023-05-14T04:07:23;99798.28;;;9.48;99.50
16777;BME280;8505;49.456;8.164;2023-05-14T04:09:50;99793.84;;;9.48;99.02
16777;BME280;8505;49.456;8.164;2023-05-14T04:12:20;99789.03;;;9.44;99.62
16777;BME280;8505;49.456;8.164;2023-05-14T04:14:48;99786.41;;;9.44;99.27
16777;BME280;8505;49.456;8.164;2023-05-14T04:17:16;99792.81;;;9.41;99.12
16777;BME280;8505;49.456;8.164;2023-05-14T04:19:43;99790.66;;;9.45;99.19
16777;BME280;8505;49.456;8.164;2023-05-14T04:22:11;99792.50;;;9.44;98.94
16777;BME280;8505;49.456;8.164;2023-05-14T04:24:39;99789.72;;;9.54;98.48
16777;BME280;8505;49.456;8.164;2023-05-14T04:27:07;99798.63;;;9.69;98.32
16777;BME280;8505;49.456;8.164;2023-05-14T04:29:36;99796.16;;;9.75;97.57
16777;BME280;8505;49.456;8.164;2023-05-14T04:32:04;99802.13;;;9.86;97.25
16777;BME280;8505;49.456;8.164;2023-05-14T04:34:33;99795.00;;;9.94;96.49
16777;BME280;8505;49.456;8.164;2023-05-14T04:37:01;99801.59;;;10.14;95.32
16777;BME280;8505;49.456;8.164;2023-05-14T04:39:29;99802.63;;;10.22;94.71
16777;BME280;8505;49.456;8.164;2023-05-14T04:41:57;99800.50;;;10.17;94.28
16777;BME280;8505;49.456;8.164;2023-05-14T04:44:25;99798.00;;;10.24;94.45
16777;BME280;8505;49.456;8.164;2023-05-14T04:46:54;99798.16;;;10.30;94.45
16777;BME280;8505;49.456;8.164;2023-05-14T04:49:22;99797.16;;;10.31;94.42
16777;BME280;8505;49.456;8.164;2023-05-14T04:51:51;99796.47;;;10.37;93.42
16777;BME280;8505;49.456;8.164;2023-05-14T04:54:19;99802.44;;;10.39;93.37
16777;BME280;8505;49.456;8.164;2023-05-14T04:56:47;99802.44;;;10.39;94.04
16777;BME280;8505;49.456;8.164;2023-05-14T04:59:15;99811.88;;;10.42;93.85
16777;BME280;8505;49.456;8.164;2023-05-14T05:01:43;99809.06;;;10.35;94.17
16777;BME280;8505;49.456;8.164;2023-05-14T05:04:13;99808.72;;;10.38;94.02
16777;BME280;8505;49.456;8.164;2023-05-14T05:06:41;99810.56;;;10.22;94.99
16777;BME280;8505;49.456;8.164;2023-05-14T05:09:08;99814.84;;;10.31;95.25
16777;BME280;8505;49.456;8.164;2023-05-14T05:11:36;99813.38;;;10.36;94.84
16777;BME280;8505;49.456;8.164;2023-05-14T05:14:04;99816.03;;;10.12;95.57
16777;BME280;8505;49.456;8.164;2023-05-14T05:16:32;99812.88;;;10.08;95.76
16777;BME280;8505;49.456;8.164;2023-05-14T05:19:00;99817.31;;;10.16;95.72
16777;BME280;8505;49.456;8.164;2023-05-14T05:21:30;99820.97;;;9.99;96.36
16777;BME280;8505;49.456;8.164;2023-05-14T05:23:58;99821.63;;;10.01;96.76
16777;BME280;8505;49.456;8.164;2023-05-14T05:26:26;99825.94;;;10.02;97.30
16777;BME280;8505;49.456;8.164;2023-05-14T05:28:53;99832.88;;;10.11;96.44
16777;BME280;8505;49.456;8.164;2023-05-14T05:31:21;99822.97;;;10.21;96.41
16777;BME280;8505;49.456;8.164;2023-05-14T05:33:50;99824.28;;;10.25;96.57
16777;BME280;8505;49.456;8.164;2023-05-14T05:36:17;99823.63;;;10.31;96.06
16777;BME280;8505;49.456;8.164;2023-05-14T05:38:46;99826.94;;;10.25;96.33
16777;BME280;8505;49.456;8.164;2023-05-14T05:41:14;99833.38;;;10.31;95.92
16777;BME280;8505;49.456;8.164;2023-05-14T05:43:42;99825.63;;;10.29;96.16
16777;BME280;8505;49.456;8.164;2023-05-14T05:46:10;99824.28;;;10.33;95.83
16777;BME280;8505;49.456;8.164;2023-05-14T05:48:38;99820.81;;;10.33;95.90
16777;BME280;8505;49.456;8.164;2023-05-14T05:51:06;99821.28;;;10.44;95.84
16777;BME280;8505;49.456;8.164;2023-05-14T05:53:34;99819.97;;;10.48;95.81
16777;BME280;8505;49.456;8.164;2023-05-14T05:56:04;99820.97;;;10.47;96.01
16777;BME280;8505;49.456;8.164;2023-05-14T05:58:32;99817.28;;;10.65;96.13
16777;BME280;8505;49.456;8.164;2023-05-14T06:01:00;99822.06;;;10.69;95.50
16777;BME280;8505;49.456;8.164;2023-05-14T06:03:28;99814.56;;;10.81;94.79
16777;BME280;8505;49.456;8.164;2023-05-14T06:05:56;99816.06;;;10.83;94.46
16777;BME280;8505;49.456;8.164;2023-05-14T06:08:24;99818.34;;;10.86;94.38
16777;BME280;8505;49.456;8.164;2023-05-14T06:10:52;99821.34;;;10.91;94.23
16777;BME280;8505;49.456;8.164;2023-05-14T06:13:21;99829.56;;;11.05;93.69
16777;BME280;8505;49.456;8.164;2023-05-14T06:15:49;99824.72;;;11.16;93.96
16777;BME280;8505;49.456;8.164;2023-05-14T06:18:17;99826.84;;;11.13;93.71
16777;BME280;8505;49.456;8.164;2023-05-14T06:20:45;99819.97;;;11.34;93.54
16777;BME280;8505;49.456;8.164;2023-05-14T06:23:13;99825.56;;;11.40;92.61
16777;BME280;8505;49.456;8.164;2023-05-14T06:25:41;99827.16;;;11.49;92.23
16777;BME280;8505;49.456;8.164;2023-05-14T06:28:08;99818.88;;;11.52;92.72
16777;BME280;8505;49.456;8.164;2023-05-14T06:30:38;99826.81;;;11.52;92.21
16777;BME280;8505;49.456;8.164;2023-05-14T06:33:05;99815.75;;;11.71;92.21
16777;BME280;8505;49.456;8.164;2023-05-14T06:35:33;99823.88;;;11.69;92.02
16777;BME280;8505;49.456;8.164;2023-05-14T06:38:02;99823.19;;;11.98;92.97
16777;BME280;8505;49.456;8.164;2023-05-14T06:40:30;99822.09;;;12.15;89.84
16777;BME280;8505;49.456;8.164;2023-05-14T06:42:58;99827.13;;;12.25;89.52
16777;BME280;8505;49.456;8.164;2023-05-14T06:45:26;99819.44;;;12.30;89.41
16777;BME280;8505;49.456;8.164;2023-05-14T06:47:55;99817.06;;;12.35;89.17
16777;BME280;8505;49.456;8.164;2023-05-14T06:50:23;99822.75;;;12.47;89.08
16777;BME280;8505;49.456;8.164;2023-05-14T06:52:51;99814.72;;;12.70;88.65
16777;BME280;8505;49.456;8.164;2023-05-14T06:55:19;99815.00;;;12.75;87.71
16777;BME280;8505;49.456;8.164;2023-05-14T06:57:47;99813.25;;;12.82;87.67
16777;BME280;8505;49.456;8.164;2023-05-14T07:00:16;99818.84;;;12.87;87.75
16777;BME280;8505;49.456;8.164;2023-05-14T07:02:44;99812.44;;;12.81;88.60
16777;BME280;8505;49.456;8.164;2023-05-14T07:05:14;99811.31;;;13.05;86.83
16777;BME280;8505;49.456;8.164;2023-05-14T07:07:42;99808.09;;;13.10;86.30
16777;BME280;8505;49.456;8.164;2023-05-14T07:10:10;99808.09;;;13.24;85.39
16777;BME280;8505;49.456;8.164;2023-05-14T07:12:38;99811.50;;;13.33;84.83
16777;BME280;8505;49.456;8.164;2023-05-14T07:15:07;99801.72;;;13.40;84.87
16777;BME280;8505;49.456;8.164;2023-05-14T07:17:35;99799.34;;;13.45;84.56
16777;BME280;8505;49.456;8.164;2023-05-14T07:20:04;99801.25;;;13.72;84.94
16777;BME280;8505;49.456;8.164;2023-05-14T07:22:33;99794.66;;;13.68;83.85
16777;BME280;8505;49.456;8.164;2023-05-14T07:25:01;99794.47;;;13.49;86.83
16777;BME280;8505;49.456;8.164;2023-05-14T07:27:29;99797.06;;;14.06;86.16
16777;BME280;8505;49.456;8.164;2023-05-14T07:29:57;99794.94;;;14.50;81.86
16777;BME280;8505;49.456;8.164;2023-05-14T07:32:25;99795.38;;;14.54;79.55
16777;BME280;8505;49.456;8.164;2023-05-14T07:34:53;99791.28;;;14.86;77.70
16777;BME280;8505;49.456;8.164;2023-05-14T07:37:21;99782.50;;;15.53;76.29
16777;BME280;8505;49.456;8.164;2023-05-14T07:39:52;99773.31;;;16.01;73.13
16777;BME280;8505;49.456;8.164;2023-05-14T07:42:21;99773.94;;;16.23;69.24
16777;BME280;8505;49.456;8.164;2023-05-14T07:45:01;99765.47;;;17.10;68.18
16777;BME280;8505;49.456;8.164;2023-05-14T07:47:30;99759.03;;;18.18;64.22
16777;BME280;8505;49.456;8.164;2023-05-14T07:49:58;99759.88;;;18.37;62.97
16777;BME280;8505;49.456;8.164;2023-05-14T07:52:26;99753.94;;;18.90;57.00
16777;BME280;8505;49.456;8.164;2023-05-14T07:54:56;99753.72;;;17.87;58.60
16777;BME280;8505;49.456;8.164;2023-05-14T07:57:24;99754.34;;;17.51;59.67
16777;BME280;8505;49.456;8.164;2023-05-14T07:59:52;99758.50;;;18.28;58.03
16777;BME280;8505;49.456;8.164;2023-05-14T08:02:19;99748.63;;;18.04;56.85
16777;BME280;8505;49.456;8.164;2023-05-14T08:04:47;99752.28;;;18.09;57.64
16777;BME280;8505;49.456;8.164;2023-05-14T08:07:15;99752.88;;;18.36;57.11
16777;BME280;8505;49.456;8.164;2023-05-14T08:09:43;99747.69;;;18.16;58.56
16777;BME280;8505;49.456;8.164;2023-05-14T08:12:13;99747.44;;;18.43;56.51
16777;BME280;8505;49.456;8.164;2023-05-14T08:14:41;99754.34;;;18.93;55.41
16777;BME280;8505;49.456;8.164;2023-05-14T08:17:09;99744.66;;;18.92;55.36
16777;BME280;8505;49.456;8.164;2023-05-14T08:19:37;99729.47;;;19.16;55.59
16777;BME280;8505;49.456;8.164;2023-05-14T08:22:05;99729.81;;;19.20;54.28
16777;BME280;8505;49.456;8.164;2023-05-14T08:24:33;99729.41;;;19.34;53.28
16777;BME280;8505;49.456;8.164;2023-05-14T08:27:01;99737.84;;;18.90;54.03
16777;BME280;8505;49.456;8.164;2023-05-14T08:29:30;99732.06;;;18.75;53.05
16777;BME280;8505;49.456;8.164;2023-05-14T08:31:58;99721.06;;;19.13;52.11
16777;BME280;8505;49.456;8.164;2023-05-14T08:34:41;99720.59;;;19.46;50.72
16777;BME280;8505;49.456;8.164;2023-05-14T08:37:09;99721.03;;;19.43;52.13
16777;BME280;8505;49.456;8.164;2023-05-14T08:39:37;99715.16;;;19.75;51.52
16777;BME280;8505;49.456;8.164;2023-05-14T08:42:06;99713.56;;;19.15;50.99
16777;BME280;8505;49.456;8.164;2023-05-14T08:44:38;99712.72;;;19.62;49.88
16777;BME280;8505;49.456;8.164;2023-05-14T08:47:09;99712.53;;;19.46;50.73
16777;BME280;8505;49.456;8.164;2023-05-14T08:49:42;99715.25;;;19.27;49.90
16777;BME280;8505;49.456;8.164;2023-05-14T08:52:11;99718.72;;;19.46;50.32
16777;BME280;8505;49.456;8.164;2023-05-14T08:54:39;99715.13;;;18.92;50.12
16777;BME280;8505;49.456;8.164;2023-05-14T08:57:08;99708.66;;;19.83;49.32
16777;BME280;8505;49.456;8.164;2023-05-14T08:59:38;99701.28;;;19.90;49.21
16777;BME280;8505;49.456;8.164;2023-05-14T09:02:08;99698.59;;;19.78;48.77
16777;BME280;8505;49.456;8.164;2023-05-14T09:04:36;99698.25;;;20.10;47.18
16777;BME280;8505;49.456;8.164;2023-05-14T09:07:05;99696.16;;;20.12;48.24
16777;BME280;8505;49.456;8.164;2023-05-14T09:09:34;99694.16;;;19.96;47.74
16777;BME280;8505;49.456;8.164;2023-05-14T09:12:02;99697.06;;;20.06;48.63
16777;BME280;8505;49.456;8.164;2023-05-14T09:14:31;99698.00;;;19.88;49.91
16777;BME280;8505;49.456;8.164;2023-05-14T09:17:01;99696.25;;;20.29;48.35
16777;BME280;8505;49.456;8.164;2023-05-14T09:19:29;99695.31;;;20.00;49.66
16777;BME280;8505;49.456;8.164;2023-05-14T09:21:57;99697.91;;;20.18;47.69
16777;BME280;8505;49.456;8.164;2023-05-14T09:24:26;99692.09;;;20.84;48.12
16777;BME280;8505;49.456;8.164;2023-05-14T09:26:56;99692.34;;;20.71;47.57
16777;BME280;8505;49.456;8.164;2023-05-14T09:29:25;99700.34;;;20.66;47.98
16777;BME280;8505;49.456;8.164;2023-05-14T09:31:54;99694.03;;;19.79;49.80
16777;BME280;8505;49.456;8.164;2023-05-14T09:34:25;99698.25;;;19.87;48.64
16777;BME280;8505;49.456;8.164;2023-05-14T09:36:55;99694.03;;;19.79;50.25
16777;BME280;8505;49.456;8.164;2023-05-14T09:39:25;99698.72;;;20.07;50.53
16777;BME280;8505;49.456;8.164;2023-05-14T09:41:54;99701.06;;;20.03;51.01
16777;BME280;8505;49.456;8.164;2023-05-14T09:44:22;99695.56;;;19.98;50.29
16777;BME280;8505;49.456;8.164;2023-05-14T09:46:52;99712.25;;;18.76;51.89
16777;BME280;8505;49.456;8.164;2023-05-14T09:49:20;99698.53;;;18.95;53.05
16777;BME280;8505;49.456;8.164;2023-05-14T09:51:51;99691.69;;;20.06;50.59
16777;BME280;8505;49.456;8.164;2023-05-14T09:54:19;99696.50;;;20.27;51.05
16777;BME280;8505;49.456;8.164;2023-05-14T09:56:47;99692.66;;;20.23;49.59
16777;BME280;8505;49.456;8.164;2023-05-14T09:59:15;99687.50;;;19.87;50.03
16777;BME280;8505;49.456;8.164;2023-05-14T10:01:43;99691.84;;;20.23;49.64
16777;BME280;8505;49.456;8.164;2023-05-14T10:04:12;99690.44;;;20.83;49.50
16777;BME280;8505;49.456;8.164;2023-05-14T10:06:41;99695.34;;;20.86;48.54
16777;BME280;8505;49.456;8.164;2023-05-14T10:09:15;99692.28;;;20.31;48.93
16777;BME280;8505;49.456;8.164;2023-05-14T10:11:46;99700.31;;;19.61;51.40
16777;BME280;8505;49.456;8.164;2023-05-14T10:14:21;99697.16;;;19.53;52.34
16777;BME280;8505;49.456;8.164;2023-05-14T10:16:52;99692.84;;;19.75;51.27
16777;BME280;8505;49.456;8.164;2023-05-14T10:19:23;99692.63;;;19.35;52.45
16777;BME280;8505;49.456;8.164;2023-05-14T10:21:54;99699.19;;;20.15;51.33
16777;BME280;8505;49.456;8.164;2023-05-14T10:24:24;99685.97;;;19.91;51.32
16777;BME280;8505;49.456;8.164;2023-05-14T10:26:53;99693.66;;;18.92;50.87
16777;BME280;8505;49.456;8.164;2023-05-14T10:29:30;99693.69;;;18.74;52.71
16777;BME280;8505;49.456;8.164;2023-05-14T10:32:03;99688.81;;;19.43;51.64
16777;BME280;8505;49.456;8.164;2023-05-14T10:34:35;99676.31;;;19.36;51.95
16777;BME280;8505;49.456;8.164;2023-05-14T10:37:05;99683.94;;;19.51;51.34
16777;BME280;8505;49.456;8.164;2023-05-14T10:39:44;99690.75;;;20.00;49.67
16777;BME280;8505;49.456;8.164;2023-05-14T10:42:17;99683.38;;;19.19;51.64
16777;BME280;8505;49.456;8.164;2023-05-14T10:44:49;99678.34;;;19.64;51.55
16777;BME280;8505;49.456;8.164;2023-05-14T10:47:18;99685.41;;;19.35;51.80
16777;BME280;8505;49.456;8.164;2023-05-14T10:49:46;99678.25;;;19.29;50.58
16777;BME280;8505;49.456;8.164;2023-05-14T10:52:19;99678.34;;;19.53;50.70
16777;BME280;8505;49.456;8.164;2023-05-14T10:54:53;99674.59;;;19.54;50.87
16777;BME280;8505;49.456;8.164;2023-05-14T10:57:23;99676.69;;;19.52;51.66
16777;BME280;8505;49.456;8.164;2023-05-14T10:59:53;99673.13;;;19.28;50.90
16777;BME280;8505;49.456;8.164;2023-05-14T11:02:23;99673.22;;;19.21;50.54
16777;BME280;8505;49.456;8.164;2023-05-14T11:04:57;99678.25;;;18.51;52.20
16777;BME280;8505;49.456;8.164;2023-05-14T11:07:30;99681.06;;;18.93;51.54
16777;BME280;8505;49.456;8.164;2023-05-14T11:10:02;99681.34;;;18.48;51.69
16777;BME280;8505;49.456;8.164;2023-05-14T11:12:31;99676.50;;;19.23;51.95
16777;BME280;8505;49.456;8.164;2023-05-14T11:15:02;99671.03;;;19.00;51.58
16777;BME280;8505;49.456;8.164;2023-05-14T11:17:31;99670.72;;;19.08;51.45
16777;BME280;8505;49.456;8.164;2023-05-14T11:20:00;99682.13;;;18.74;51.75
16777;BME280;8505;49.456;8.164;2023-05-14T11:22:31;99678.22;;;18.33;53.62
16777;BME280;8505;49.456;8.164;2023-05-14T11:25:01;99672.78;;;18.76;52.99
16777;BME280;8505;49.456;8.164;2023-05-14T11:27:29;99682.84;;;18.26;53.93
16777;BME280;8505;49.456;8.164;2023-05-14T11:29:57;99677.03;;;18.29;53.94
16777;BME280;8505;49.456;8.164;2023-05-14T11:32:26;99678.63;;;17.94;55.26
16777;BME280;8505;49.456;8.164;2023-05-14T11:34:54;99680.25;;;17.76;55.70
16777;BME280;8505;49.456;8.164;2023-05-14T11:37:22;99671.38;;;18.19;55.50
16777;BME280;8505;49.456;8.164;2023-05-14T11:39:52;99667.34;;;18.46;53.48
16777;BME280;8505;49.456;8.164;2023-05-14T11:42:23;99664.50;;;18.78;52.23
16777;BME280;8505;49.456;8.164;2023-05-14T11:44:52;99663.84;;;18.64;53.32
16777;BME280;8505;49.456;8.164;2023-05-14T11:47:21;99672.28;;;18.49;53.51
16777;BME280;8505;49.456;8.164;2023-05-14T11:49:49;99659.47;;;18.51;52.18
16777;BME280;8505;49.456;8.164;2023-05-14T11:52:17;99661.00;;;18.04;53.59
16777;BME280;8505;49.456;8.164;2023-05-14T11:54:47;99647.84;;;18.76;52.64
16777;BME280;8505;49.456;8.164;2023-05-14T11:57:18;99646.47;;;18.85;53.94
16777;BME280;8505;49.456;8.164;2023-05-14T11:59:48;99643.63;;;19.10;52.63
16777;BME280;8505;49.456;8.164;2023-05-14T12:02:22;99650.34;;;19.19;52.26
16777;BME280;8505;49.456;8.164;2023-05-14T12:04:52;99643.72;;;19.03;52.65
16777;BME280;8505;49.456;8.164;2023-05-14T12:07:21;99640.03;;;19.57;50.46
16777;BME280;8505;49.456;8.164;2023-05-14T12:09:49;99642.66;;;19.34;49.97
16777;BME280;8505;49.456;8.164;2023-05-14T12:12:18;99641.78;;;19.63;49.36
16777;BME280;8505;49.456;8.164;2023-05-14T12:14:49;99638.22;;;19.39;50.23
16777;BME280;8505;49.456;8.164;2023-05-14T12:17:18;99640.91;;;19.39;50.56
16777;BME280;8505;49.456;8.164;2023-05-14T12:19:48;99628.34;;;19.10;49.29
16777;BME280;8505;49.456;8.164;2023-05-14T12:22:18;99634.06;;;19.14;49.64
16777;BME280;8505;49.456;8.164;2023-05-14T12:24:52;99629.06;;;19.59;48.67
16777;BME280;8505;49.456;8.164;2023-05-14T12:27:21;99624.75;;;19.81;47.16
16777;BME280;8505;49.456;8.164;2023-05-14T12:29:57;99622.97;;;19.75;47.47
16777;BME280;8505;49.456;8.164;2023-05-14T12:32:45;99622.41;;;19.96;47.23
16777;BME280;8505;49.456;8.164;2023-05-14T12:35:14;99619.19;;;19.29;47.63
16777;BME280;8505;49.456;8.164;2023-05-14T12:37:42;99611.97;;;19.42;47.25
16777;BME280;8505;49.456;8.164;2023-05-14T12:40:11;99608.03;;;19.79;47.90
16777;BME280;8505;49.456;8.164;2023-05-14T12:42:39;99603.59;;;19.73;47.87
16777;BME280;8505;49.456;8.164;2023-05-14T12:45:09;99600.91;;;19.61;47.86
16777;BME280;8505;49.456;8.164;2023-05-14T12:47:37;99598.09;;;19.91;46.19
16777;BME280;8505;49.456;8.164;2023-05-14T12:50:06;99593.81;;;20.42;45.30
16777;BME280;8505;49.456;8.164;2023-05-14T12:52:34;99588.97;;;20.04;45.23
16777;BME280;8505;49.456;8.164;2023-05-14T12:55:06;99593.91;;;20.47;45.88
16777;BME280;8505;49.456;8.164;2023-05-14T12:57:34;99583.75;;;20.49;45.18
16777;BME280;8505;49.456;8.164;2023-05-14T13:00:05;99584.91;;;20.98;45.02
16777;BME280;8505;49.456;8.164;2023-05-14T13:02:35;99584.59;;;20.66;45.56
16777;BME280;8505;49.456;8.164;2023-05-14T13:05:09;99578.59;;;20.92;44.94
16777;BME280;8505;49.456;8.164;2023-05-14T13:07:37;99570.84;;;21.41;44.11
16777;BME280;8505;49.456;8.164;2023-05-14T13:10:05;99575.81;;;21.49;44.22
16777;BME280;8505;49.456;8.164;2023-05-14T13:12:33;99560.47;;;21.88;43.60
16777;BME280;8505;49.456;8.164;2023-05-14T13:15:01;99556.97;;;20.87;44.69
16777;BME280;8505;49.456;8.164;2023-05-14T13:17:29;99555.94;;;22.10;43.32
16777;BME280;8505;49.456;8.164;2023-05-14T13:19:58;99555.41;;;22.35;41.28
16777;BME280;8505;49.456;8.164;2023-05-14T13:22:26;99547.72;;;22.71;40.72